Friday, July 20, 2018, 4:57 AM EDT
Back to Local

KIDI, Indiana / Stewart Field

Location: Indiana, PA, United States Lat: 40.633
Local Time: 4:57 AM EDT ( 8:57 GMT) Lon: -79.1
Time Zone: US/Eastern Elev: 1407 ft

Show me the last for .
Show Decoded

2018-07-20 04:35 METAR KIDI 200835Z AUTO 19006KT 10SM CLR 19/15 A3011 RMK A01 =
2018-07-20 04:15 METAR KIDI 200815Z AUTO 00000KT 10SM CLR 19/15 A3011 RMK A01 =
2018-07-20 03:55 METAR KIDI 200755Z AUTO 00000KT 10SM CLR 19/15 A3012 RMK A01 =
2018-07-20 03:35 METAR KIDI 200735Z AUTO 19006G12KT 10SM CLR 20/15 A3011 RMK A01 =
2018-07-20 03:15 METAR KIDI 200715Z AUTO 23005KT 10SM CLR 19/15 A3011 RMK A01 =
2018-07-20 02:55 METAR KIDI 200655Z AUTO 00000KT 10SM CLR 20/15 A3011 RMK A01 =
2018-07-20 02:35 METAR KIDI 200635Z AUTO 16007KT 120V200 10SM CLR 21/15 A3010 RMK A01 =
2018-07-20 02:15 METAR KIDI 200615Z AUTO 15007KT 10SM CLR 21/15 A3010 RMK A01 =
2018-07-20 01:55 METAR KIDI 200555Z AUTO VRB05G11KT 10SM CLR 21/15 A3011 RMK A01 =
2018-07-20 01:35 METAR KIDI 200535Z AUTO 15007G13KT 10SM CLR 21/15 A3011 RMK A01 =
2018-07-20 01:15 METAR KIDI 200515Z AUTO 15008KT 10SM CLR 21/15 A3012 RMK A01 =
2018-07-20 00:55 METAR KIDI 200455Z AUTO VRB06KT 10SM CLR 21/15 A3012 RMK A01 =
2018-07-20 00:35 METAR KIDI 200435Z AUTO 15007G13KT 10SM CLR 22/15 A3012 RMK A01 =
2018-07-20 00:15 METAR KIDI 200415Z AUTO 15007G13KT 10SM CLR 21/15 A3013 RMK A01 =
2018-07-19 23:55 METAR KIDI 200355Z AUTO 15007KT 10SM CLR 21/15 A3012 RMK A01 =
2018-07-19 23:35 METAR KIDI 200335Z AUTO 15007KT 10SM CLR 22/15 A3012 RMK A01 =
2018-07-19 23:15 METAR KIDI 200315Z AUTO 14007KT 10SM FEW046 22/15 A3011 RMK A01 =
2018-07-19 22:55 METAR KIDI 200255Z AUTO 13005KT 10SM FEW045 21/15 A3012 RMK A01 =
2018-07-19 22:35 METAR KIDI 200235Z AUTO 13005G10KT 10SM CLR 21/15 A3012 RMK A01 =
2018-07-19 22:15 METAR KIDI 200215Z AUTO 11004KT 10SM CLR 22/15 A3012 RMK A01 =
2018-07-19 21:55 METAR KIDI 200155Z AUTO 13006KT 10SM CLR 22/15 A3011 RMK A01 =
2018-07-19 21:35 METAR KIDI 200135Z AUTO 12005KT 10SM CLR 22/16 A3011 RMK A01 =
2018-07-19 21:15 METAR KIDI 200115Z AUTO 13005KT 10SM CLR 23/16 A3011 RMK A01 =
2018-07-19 20:55 METAR KIDI 200055Z AUTO 14004KT 10SM CLR 23/16 A3010 RMK A01 =
2018-07-19 20:35 METAR KIDI 200035Z AUTO 14004KT 10SM CLR 24/16 A3010 RMK A01 =
2018-07-19 20:15 METAR KIDI 200015Z AUTO 14003KT 10SM CLR 25/16 A3010 RMK A01 =
2018-07-19 19:55 METAR KIDI 192355Z AUTO 17004KT 10SM CLR 26/15 A3010 RMK A01 =
2018-07-19 19:35 METAR KIDI 192335Z AUTO 16004KT 10SM CLR 27/16 A3010 RMK A01 =
2018-07-19 19:15 METAR KIDI 192315Z AUTO 18004KT 10SM CLR 27/15 A3010 RMK A01 =
2018-07-19 18:55 METAR KIDI 192255Z AUTO 17004KT 10SM CLR 28/14 A3010 RMK A01 =
2018-07-19 18:35 METAR KIDI 192235Z AUTO 16005KT 10SM CLR 28/14 A3010 RMK A01 =
2018-07-19 18:15 METAR KIDI 192215Z AUTO 18006KT 10SM CLR 28/14 A3010 RMK A01 =
2018-07-19 17:55 METAR KIDI 192155Z AUTO 17005KT 10SM CLR 28/14 A3010 RMK A01 =
2018-07-19 17:35 METAR KIDI 192135Z AUTO 00000KT 10SM CLR 28/14 A3011 RMK A01 =
2018-07-19 17:15 METAR KIDI 192115Z AUTO 18004KT 10SM CLR 28/14 A3011 RMK A01 =
2018-07-19 16:55 METAR KIDI 192055Z AUTO 00000KT 10SM CLR 28/14 A3012 RMK A01 =
2018-07-19 16:35 METAR KIDI 192035Z AUTO VRB06KT 10SM CLR 28/14 A3012 RMK A01 =
2018-07-19 16:15 METAR KIDI 192015Z AUTO 00000KT 10SM CLR 27/14 A3012 RMK A01 =
2018-07-19 15:55 METAR KIDI 191955Z AUTO VRB03KT 10SM CLR 27/15 A3012 RMK A01 =
2018-07-19 15:35 METAR KIDI 191935Z AUTO 24004G10KT 10SM CLR 27/14 A3013 RMK A01 =
2018-07-19 15:15 METAR KIDI 191915Z AUTO 22005KT 10SM CLR 27/14 A3013 RMK A01 =
2018-07-19 14:55 METAR KIDI 191855Z AUTO 00000KT 10SM CLR 26/13 A3014 RMK A01 =
2018-07-19 14:35 METAR KIDI 191835Z AUTO VRB03KT 6SM HZ CLR 26/14 A3014 RMK A01 =
2018-07-19 14:15 METAR KIDI 191815Z AUTO VRB03KT 10SM CLR 26/15 A3014 RMK A01 =
2018-07-19 13:55 METAR KIDI 191755Z AUTO 29005KT 10SM CLR 26/14 A3015 RMK A01 =
2018-07-19 13:35 METAR KIDI 191735Z AUTO VRB03G10KT 10SM CLR 25/13 A3015 RMK A01 =
2018-07-19 13:15 METAR KIDI 191715Z AUTO 00000KT 10SM CLR 25/13 A3016 RMK A01 =
2018-07-19 12:55 METAR KIDI 191655Z AUTO VRB04KT 10SM CLR 25/14 A3016 RMK A01 =
2018-07-19 12:35 METAR KIDI 191635Z AUTO VRB05KT 9SM CLR 25/13 A3017 RMK A01 =
2018-07-19 12:15 METAR KIDI 191615Z AUTO 00000KT 10SM FEW049 25/14 A3017 RMK A01 =
2018-07-19 11:55 METAR KIDI 191555Z AUTO 26004KT 10SM BKN048 24/14 A3017 RMK A01 =
2018-07-19 11:35 METAR KIDI 191535Z AUTO 19007KT 10SM SCT048 24/14 A3018 RMK A01 =
2018-07-19 11:15 METAR KIDI 191515Z AUTO VRB03KT 10SM CLR 24/13 A3018 RMK A01 =
2018-07-19 10:55 METAR KIDI 191455Z AUTO 00000KT 10SM CLR 23/15 A3018 RMK A01 =
2018-07-19 10:35 METAR KIDI 191435Z AUTO 00000KT 10SM CLR 23/15 A3018 RMK A01 =
2018-07-19 10:15 METAR KIDI 191415Z AUTO 15004KT 10SM CLR 22/16 A3018 RMK A01 =
2018-07-19 09:55 METAR KIDI 191355Z AUTO 20005KT 10SM CLR 22/16 A3017 RMK A01 =
2018-07-19 09:35 METAR KIDI 191335Z AUTO 14005KT 10SM CLR 21/15 A3017 RMK A01 =
2018-07-19 09:15 METAR KIDI 191315Z AUTO 11004KT 10SM CLR 20/15 A3017 RMK A01 =
2018-07-19 08:55 METAR KIDI 191255Z AUTO 00000KT 10SM CLR 19/15 A3017 RMK A01 =
2018-07-19 08:35 METAR KIDI 191235Z AUTO 00000KT 10SM CLR 18/15 A3016 RMK A01 =
2018-07-19 08:15 METAR KIDI 191215Z AUTO 08003KT 10SM CLR 17/14 A3016 RMK A01 =
2018-07-19 07:55 METAR KIDI 191155Z AUTO 07004KT 10SM CLR 17/14 A3016 RMK A01 =
2018-07-19 07:35 METAR KIDI 191135Z AUTO 07004KT 10SM CLR 16/14 A3016 RMK A01 =
2018-07-19 07:15 METAR KIDI 191115Z AUTO 08003KT 10SM CLR 15/14 A3016 RMK A01 =
2018-07-19 06:55 METAR KIDI 191055Z AUTO 00000KT 10SM CLR 15/14 A3016 RMK A01 =
2018-07-19 06:35 METAR KIDI 191035Z AUTO 09004KT 10SM FEW055 15/14 A3016 RMK A01 =
2018-07-19 06:15 METAR KIDI 191015Z AUTO 00000KT 10SM BKN055 14/14 A3016 RMK A01 =
2018-07-19 05:55 METAR KIDI 190955Z AUTO 00000KT 10SM OVC055 14/14 A3016 RMK A01 =
2018-07-19 05:35 METAR KIDI 190935Z AUTO 00000KT 10SM OVC055 14/14 A3016 RMK A01 =
2018-07-19 05:15 METAR KIDI 190915Z AUTO 00000KT 10SM OVC055 14/14 A3015 RMK A01 =

Support USWX by starting your Amazon purchase here.